Dades meteomassalio
Diari Summary for Marc 4, 2017 Units:  Metric    English   Both
« Previous Day
Next Day »
Diari Semanal Mensual Anual Personalitzat
  Maxima: Minima: Mijana:
Temperatura: -17.8 °C -15.4 °C -13.2 °C
Rosada: -17.8 °C -17.5 °C -16.7 °C
Humitat: Humidity % 46 % 66 %
Velocitat del vent: 0 km/h 0 km/h 39.7 km/h
Racha vent: 0 km/h - -
Vent:- - WNW
Pressio: 0 hPa 33799.1 hPa -
Pluja: 116.84 mm    
Historical Graphs
 
 
Tabular Data for Marc 4, 2017
Time Temperature Dew Point Pressure Wind Wind Speed Wind Gust Humidity Rainfall Rate (Hourly) solar Conditions
-17.8 °C -17.8 °C 0 hPa Calm     Humidity % 0 mm SolarRadiationWatts/m^2 W/m2 Conditions
00:04 -14 °C -15.1 °C 33822.8 hPa WNW 62.6 km/h 62.6 km/h 88 % 58.42 mm 0.0 W/m2 RA
00:09 -14.1 °C -15.1 °C 33822.8 hPa West 68.6 km/h 68.6 km/h 88 % 58.42 mm 0.0 W/m2 RA
00:14 -14.1 °C -15.1 °C 33822.8 hPa West 50.7 km/h 50.7 km/h 88 % 58.42 mm 0.0 W/m2 RA
00:19 -14.1 °C -15.2 °C 33809.2 hPa WNW 49.2 km/h 49.2 km/h 88 % 58.42 mm 0.0 W/m2 RA
00:24 -14.2 °C -15.2 °C 33809.2 hPa West 56.6 km/h 56.6 km/h 88 % 58.42 mm 0.0 W/m2 RA
00:29 -14.2 °C -15.2 °C 33809.2 hPa WNW 47.6 km/h 47.6 km/h 88 % 58.42 mm 0.0 W/m2 RA
00:34 -14.2 °C -15.2 °C 33799.1 hPa NNW 65.5 km/h 65.5 km/h 88 % 71.12 mm 0.0 W/m2 RA
00:39 -14.2 °C -15.4 °C 33799.1 hPa WNW 86.4 km/h 86.4 km/h 86 % 71.12 mm 0.0 W/m2 RA
00:44 -14.3 °C -15.4 °C 33799.1 hPa WNW 74.5 km/h 74.5 km/h 86 % 58.42 mm 0.0 W/m2
00:49 -14.3 °C -15.5 °C 33799.1 hPa WNW 74.5 km/h 74.5 km/h 86 % 58.42 mm 0.0 W/m2 RA
00:54 -14.3 °C -15.6 °C 33799.1 hPa NW 71.5 km/h 71.5 km/h 86 % 58.42 mm 0.0 W/m2 RA
00:59 -14.4 °C -15.5 °C 33809.2 hPa NW 68.6 km/h 68.6 km/h 87 % 58.42 mm 0.0 W/m2 RA
01:04 -14.5 °C -15.6 °C 33822.8 hPa NW 80.5 km/h 80.5 km/h 87 % 58.42 mm 0.0 W/m2 RA
01:09 -14.6 °C -15.7 °C 33822.8 hPa NW 59.5 km/h 59.5 km/h 87 % 58.42 mm 0.0 W/m2 RA
01:14 -14.6 °C -15.6 °C 33822.8 hPa ENE 53.6 km/h 53.6 km/h 88 % 63.5 mm 0.0 W/m2 RA
01:19 -14.6 °C -15.6 °C 33822.8 hPa WNW 68.6 km/h 68.6 km/h 88 % 63.5 mm 0.0 W/m2 RA
01:24 -14.6 °C -15.6 °C 33822.8 hPa West 53.6 km/h 53.6 km/h 88 % 58.42 mm 0.0 W/m2
01:29 -14.6 °C -15.6 °C 33822.8 hPa WNW 71.5 km/h 71.5 km/h 88 % 58.42 mm 0.0 W/m2 RA
01:34 -14.6 °C -15.6 °C 33822.8 hPa WNW 65.5 km/h 65.5 km/h 88 % 50.8 mm 0.0 W/m2 CLR
01:39 -14.6 °C -15.6 °C 33809.2 hPa WNW 38.8 km/h 38.8 km/h 88 % 58.42 mm 0.0 W/m2 RA
01:44 -14.6 °C -15.5 °C 33809.2 hPa West 56.6 km/h 56.6 km/h 89 % 58.42 mm 0.0 W/m2 RA
01:49 -14.6 °C -15.4 °C 33809.2 hPa WNW 50.7 km/h 50.7 km/h 89 % 58.42 mm 0.0 W/m2 CLR
01:54 -14.5 °C -15.4 °C 33809.2 hPa NW 46.7 km/h 46.7 km/h 89 % 58.42 mm 0.0 W/m2 RA
01:59 -14.4 °C -15.4 °C 33809.2 hPa WNW 59.5 km/h 59.5 km/h 88 % 50.8 mm 0.0 W/m2
02:04 -14.4 °C -15.4 °C 33809.2 hPa NW 64.7 km/h 64.7 km/h 88 % 45.72 mm 0.0 W/m2 CLR
02:09 -14.4 °C -15.5 °C 33809.2 hPa WNW 68.6 km/h 68.6 km/h 87 % 45.72 mm 0.0 W/m2 RA
02:14 -14.4 °C -15.5 °C 33809.2 hPa West 59.5 km/h 59.5 km/h 87 % 38.1 mm 0.0 W/m2 CLR
02:19 -14.4 °C -15.5 °C 33809.2 hPa NW 56.6 km/h 56.6 km/h 87 % 33.02 mm 0.0 W/m2 CLR
02:24 -14.3 °C -15.4 °C 33822.8 hPa WNW 59.5 km/h 59.5 km/h 87 % 33.02 mm 0.0 W/m2 CLR
02:29 -14.3 °C -15.5 °C 33822.8 hPa WNW 68.6 km/h 68.6 km/h 86 % 25.4 mm 0.0 W/m2 CLR
02:34 -14.3 °C -15.5 °C 33822.8 hPa West 89.3 km/h 89.3 km/h 86 % 33.02 mm 0.0 W/m2 RA
02:39 -14.3 °C -15.6 °C 33822.8 hPa WNW 68.6 km/h 68.6 km/h 85 % 20.32 mm 0.0 W/m2 CLR
02:44 -14.3 °C -15.6 °C 33822.8 hPa West 71.5 km/h 71.5 km/h 85 % 12.7 mm 0.0 W/m2 CLR
02:49 -14.3 °C -15.6 °C 33822.8 hPa WNW 65.5 km/h 65.5 km/h 85 % 12.7 mm 0.0 W/m2 CLR
02:54 -14.2 °C -15.6 °C 33832.9 hPa WNW 53.6 km/h 53.6 km/h 84 % 12.7 mm 0.0 W/m2 CLR
02:59 -14.3 °C -15.6 °C 33822.8 hPa NW 41.7 km/h 41.7 km/h 85 % 12.7 mm 0.0 W/m2 CLR
03:04 -14.3 °C -15.7 °C 33822.8 hPa WNW 71.5 km/h 71.5 km/h 84 % 12.7 mm 0.0 W/m2 CLR
03:09 -14.3 °C -15.7 °C 33832.9 hPa NW 56.6 km/h 56.6 km/h 84 % 7.62 mm 0.0 W/m2 CLR
03:14 -14.3 °C -15.7 °C 33832.9 hPa WNW 59.5 km/h 59.5 km/h 84 % 7.62 mm 0.0 W/m2 CLR
03:19 -14.2 °C -15.7 °C 33832.9 hPa WNW 68.6 km/h 68.6 km/h 83 % 7.62 mm 0.0 W/m2 CLR
03:24 -14.2 °C -15.7 °C 33843.1 hPa NNW 68.6 km/h 68.6 km/h 82 % 7.62 mm 0.0 W/m2 CLR
03:29 -14.1 °C -15.8 °C 33843.1 hPa West 62.6 km/h 62.6 km/h 81 % 7.62 mm 0.0 W/m2 CLR
03:35 -14.2 °C -15.8 °C 33832.9 hPa NW 59.5 km/h 59.5 km/h 81 % 0 mm 0.0 W/m2 CLR
03:40 -14.1 °C -15.9 °C 33832.9 hPa WNW 53.6 km/h 53.6 km/h 80 % 0 mm 0.0 W/m2 CLR
03:45 -14.1 °C -16 °C 33832.9 hPa NW 65.5 km/h 65.5 km/h 79 % 0 mm 0.0 W/m2 CLR
03:50 -14.1 °C -16 °C 33832.9 hPa WNW 68.6 km/h 68.6 km/h 79 % 0 mm 0.0 W/m2 CLR
03:55 -14.1 °C -16 °C 33832.9 hPa NW 44.7 km/h 44.7 km/h 79 % 0 mm 0.0 W/m2 CLR
04:00 -14.1 °C -16.1 °C 33843.1 hPa WNW 77.4 km/h 77.4 km/h 78 % 0 mm 0.0 W/m2 CLR
04:05 -14.1 °C -16.1 °C 33843.1 hPa NW 47.6 km/h 48.1 km/h 78 % 0 mm 0.0 W/m2 CLR
04:10 -14.1 °C -16.2 °C 33843.1 hPa WNW 74.5 km/h 74.5 km/h 77 % 0 mm 0.0 W/m2 CLR
04:15 -14.1 °C -16.3 °C 33843.1 hPa West 64.7 km/h 64.7 km/h 76 % 0 mm 0.0 W/m2 CLR
04:20 -14.1 °C -16.2 °C 33856.6 hPa NNW 50.7 km/h 50.7 km/h 76 % 0 mm 0.0 W/m2 CLR
04:25 -14.1 °C -16.3 °C 33856.6 hPa NNW 47.6 km/h 47.6 km/h 76 % 0 mm 0.0 W/m2 CLR
04:30 -14.1 °C -16.2 °C 33856.6 hPa West 41.7 km/h 41.7 km/h 76 % 0 mm 0.0 W/m2 CLR
04:35 -14 °C -16.4 °C 33856.6 hPa WNW 68.6 km/h 68.6 km/h 74 % 0 mm 0.0 W/m2 CLR
04:40 -14 °C -16.4 °C 33866.8 hPa NW 69.8 km/h 69.8 km/h 74 % 0 mm 0.0 W/m2 CLR
04:45 -14 °C -16.4 °C 33866.8 hPa WNW 50.7 km/h 50.7 km/h 74 % 0 mm 0.0 W/m2 CLR
04:50 -14 °C -16.5 °C 33866.8 hPa WNW 59.5 km/h 59.5 km/h 73 % 0 mm 0.0 W/m2 CLR
04:55 -14 °C -16.5 °C 33880.3 hPa WNW 71.5 km/h 71.5 km/h 73 % 0 mm 0.0 W/m2 CLR
05:00 -14 °C -16.6 °C 33880.3 hPa WNW 77.4 km/h 77.4 km/h 72 % 0 mm 0.0 W/m2 CLR
05:05 -13.9 °C -16.6 °C 33890.5 hPa WNW 71.5 km/h 71.5 km/h 72 % 0 mm 0.0 W/m2 CLR
05:10 -13.9 °C -16.6 °C 33890.5 hPa NNW 53.6 km/h 53.6 km/h 72 % 0 mm 0.0 W/m2 CLR
05:15 -14 °C -16.6 °C 33900.6 hPa NW 47.6 km/h 47.6 km/h 72 % 0 mm 0.0 W/m2 CLR
05:20 -14 °C -16.6 °C 33900.6 hPa NNW 53.6 km/h 53.6 km/h 72 % 0 mm 0.0 W/m2 CLR
05:25 -14 °C -16.6 °C 33914.2 hPa NNW 41.7 km/h 41.7 km/h 72 % 0 mm 0.0 W/m2 CLR
05:30 -14.1 °C -16.1 °C 33914.2 hPa NW 38.8 km/h 38.8 km/h 78 % 0 mm 0.0 W/m2 CLR
05:35 -14.3 °C -15.9 °C 33914.2 hPa NW 35.7 km/h 35.7 km/h 81 % 0 mm 0.0 W/m2 CLR
05:40 -14.3 °C -16 °C 33914.2 hPa NW 32.8 km/h 32.8 km/h 81 % 0 mm 0.0 W/m2 CLR
05:45 -14.3 °C -16.1 °C 33914.2 hPa NNW 36.2 km/h 36.2 km/h 80 % 0 mm 0.0 W/m2 CLR
05:50 -14.2 °C -16.3 °C 33924.3 hPa WNW 32.8 km/h 32.8 km/h 77 % 0 mm 0.0 W/m2 CLR
05:55 -14.1 °C -16.6 °C 33924.3 hPa WNW 35.7 km/h 35.7 km/h 73 % 0 mm 0.0 W/m2 CLR
06:00 -14.1 °C -16.7 °C 33924.3 hPa NW 44.1 km/h 44.1 km/h 72 % 0 mm 0.0 W/m2 CLR
06:05 -14.1 °C -16.8 °C 33924.3 hPa WNW 56.6 km/h 56.6 km/h 71 % 0 mm 0.0 W/m2 CLR
06:10 -14 °C -16.8 °C 33937.9 hPa WNW 59.5 km/h 59.5 km/h 70 % 0 mm 0.0 W/m2 CLR
06:15 -14 °C -16.9 °C 33937.9 hPa WNW 59.5 km/h 59.5 km/h 69 % 0 mm 0.0 W/m2 CLR
06:20 -14 °C -16.9 °C 33937.9 hPa NW 62.1 km/h 62.1 km/h 69 % 0 mm 0.0 W/m2 CLR
06:25 -13.9 °C -17 °C 33937.9 hPa NW 68.6 km/h 68.6 km/h 68 % 0 mm 0.0 W/m2 CLR
06:30 -14 °C -17.1 °C 33948 hPa NW 68.6 km/h 68.6 km/h 68 % 0 mm 0.0 W/m2 CLR
06:35 -14 °C -17.1 °C 33948 hPa West 51.8 km/h 51.8 km/h 68 % 0 mm 0.0 W/m2 CLR
06:40 -14 °C -17.2 °C 33948 hPa WNW 56.6 km/h 56.6 km/h 67 % 0 mm 0.0 W/m2 CLR
06:45 -13.9 °C -17.1 °C 33948 hPa West 68.6 km/h 68.6 km/h 67 % 0 mm 0.0 W/m2 CLR
06:50 -13.9 °C -17.1 °C 33948 hPa WNW 56.6 km/h 56.6 km/h 67 % 0 mm 0.0 W/m2 CLR
06:55 -14 °C -17.2 °C 33958.2 hPa WNW 74.5 km/h 74.5 km/h 67 % 0 mm 0.0 W/m2 CLR
07:00 -14 °C -17.3 °C 33958.2 hPa WNW 44.7 km/h 44.7 km/h 66 % 0 mm 0.0 W/m2 CLR
07:05 -14 °C -17.3 °C 33971.7 hPa WNW 47.6 km/h 47.6 km/h 66 % 0 mm 0.0 W/m2 CLR
07:10 -14 °C -17.3 °C 33981.9 hPa WNW 49.2 km/h 49.2 km/h 66 % 0 mm 0.0 W/m2 CLR
07:15 -14.1 °C -17.2 °C 33981.9 hPa WNW 57 km/h 57 km/h 67 % 0 mm 0.0 W/m2 CLR
07:20 -14 °C -17.3 °C 33981.9 hPa WNW 77.4 km/h 77.4 km/h 66 % 0 mm 0.0 W/m2 OVC
07:25 -14.1 °C -17.3 °C 33992.1 hPa NW 47.6 km/h 47.6 km/h 67 % 0 mm 0.0 W/m2 OVC
07:30 -14.1 °C -17.4 °C 33992.1 hPa WNW 41.7 km/h 41.7 km/h 66 % 0 mm 0.0 W/m2 OVC
07:35 -14.1 °C -17.3 °C 34005.6 hPa West 46.7 km/h 46.7 km/h 67 % 0 mm 0.0 W/m2 OVC
07:40 -14.2 °C -17.3 °C 34005.6 hPa NW 51.8 km/h 51.8 km/h 67 % 0 mm 7.0 W/m2 BKN
07:45 -14.2 °C -17.3 °C 34005.6 hPa WNW 50.7 km/h 50.7 km/h 67 % 0 mm 11.0 W/m2 BKN
07:50 -14.2 °C -17.3 °C 34015.8 hPa West 41.7 km/h 41.7 km/h 67 % 0 mm 16.0 W/m2 BKN
07:55 -14.2 °C -17.4 °C 34015.8 hPa WNW 51.8 km/h 51.8 km/h 66 % 0 mm 21.0 W/m2 BKN
08:00 -14.2 °C -17.5 °C 34015.8 hPa WNW 62.1 km/h 62.1 km/h 66 % 0 mm 26.0 W/m2 BKN
08:05 -14.2 °C -17.5 °C 34029.3 hPa NW 41.7 km/h 41.7 km/h 66 % 0 mm 28.0 W/m2 BKN
08:11 -14.2 °C -17.5 °C 34029.3 hPa West 57 km/h 57 km/h 66 % 0 mm 30.0 W/m2 BKN
08:15 -14.2 °C -17.4 °C 34039.5 hPa WNW 50.7 km/h 50.7 km/h 66 % 0 mm 32.0 W/m2 BKN
08:21 -14.2 °C -17.4 °C 34039.5 hPa WNW 50.7 km/h 50.7 km/h 66 % 0 mm 35.0 W/m2 BKN
08:26 -14.2 °C -17.4 °C 34039.5 hPa NW 68.6 km/h 68.6 km/h 67 % 0 mm 51.0 W/m2 SCT
08:30 -14.1 °C -17.4 °C 34039.5 hPa West 56.6 km/h 56.6 km/h 66 % 0 mm 84.0 W/m2 SCT
08:36 -14.1 °C -17.3 °C 34049.6 hPa West 49.2 km/h 49.2 km/h 66 % 0 mm 97.0 W/m2 FEW
08:41 -14 °C -17.2 °C 34049.6 hPa WNW 56.6 km/h 56.6 km/h 67 % 0 mm 121.0 W/m2 CLR
08:46 -14.1 °C -17.3 °C 34049.6 hPa WNW 56.6 km/h 56.6 km/h 66 % 0 mm 100.0 W/m2 CLR
08:51 -14 °C -17.3 °C 34049.6 hPa WNW 50.7 km/h 50.7 km/h 66 % 0 mm 183.0 W/m2 CLR
08:56 -13.9 °C -17 °C 34063.2 hPa WSW 38.8 km/h 38.8 km/h 68 % 0 mm 200.0 W/m2 CLR
09:01 -13.8 °C -17 °C 34049.6 hPa WNW 36.2 km/h 36.2 km/h 67 % 0 mm 221.0 W/m2 CLR
09:06 -13.8 °C -17.1 °C 34063.2 hPa WNW 35.7 km/h 35.7 km/h 66 % 0 mm 239.0 W/m2 CLR
09:11 -13.7 °C -16.8 °C 34063.2 hPa WNW 47.6 km/h 47.6 km/h 67 % 0 mm 257.0 W/m2 CLR
09:16 -13.6 °C -16.9 °C 34063.2 hPa WNW 47.6 km/h 47.6 km/h 66 % 0 mm 271.0 W/m2 CLR
09:21 -13.6 °C -16.8 °C 34063.2 hPa NW 44.7 km/h 44.7 km/h 66 % 0 mm 290.0 W/m2 CLR
09:26 -13.5 °C -16.6 °C 34073.3 hPa NW 41.7 km/h 41.7 km/h 68 % 0 mm 304.0 W/m2 CLR
09:31 -13.4 °C -16.6 °C 34073.3 hPa NW 51.8 km/h 51.8 km/h 67 % 0 mm 320.0 W/m2 CLR
09:36 -13.3 °C -16.6 °C 34073.3 hPa WNW 59.5 km/h 59.5 km/h 66 % 0 mm 334.0 W/m2 CLR
09:41 -13.3 °C -17.2 °C 34073.3 hPa WNW 62.6 km/h 62.6 km/h 61 % 0 mm 350.0 W/m2 CLR
09:46 -13.2 °C -17 °C 34073.3 hPa WNW 59.5 km/h 59.5 km/h 62 % 0 mm 366.0 W/m2 CLR
09:51 -13.2 °C -17 °C 34073.3 hPa WNW 68.6 km/h 68.6 km/h 62 % 0 mm 380.0 W/m2 CLR
09:56 -13.1 °C -16.9 °C 34073.3 hPa NW 47.6 km/h 47.6 km/h 62 % 0 mm 394.0 W/m2 CLR
10:01 -13.1 °C -17.1 °C 34073.3 hPa WNW 62.6 km/h 62.6 km/h 60 % 0 mm 408.0 W/m2 CLR
10:06 -13 °C -16.9 °C 34086.9 hPa WNW 50.7 km/h 50.7 km/h 61 % 0 mm 424.0 W/m2 CLR
10:11 -12.9 °C -17 °C 34086.9 hPa West 35.7 km/h 35.7 km/h 60 % 0 mm 438.0 W/m2 CLR
10:16 -12.8 °C -17.2 °C 34086.9 hPa West 57 km/h 57 km/h 58 % 0 mm 450.0 W/m2 CLR
10:21 -12.7 °C -16.9 °C 34086.9 hPa NNW 47.6 km/h 47.6 km/h 59 % 0 mm 462.0 W/m2 CLR
10:26 -12.7 °C -17.1 °C 34086.9 hPa WNW 57 km/h 57 km/h 58 % 0 mm 478.0 W/m2 CLR
10:31 -12.7 °C -17 °C 34086.9 hPa WNW 56.6 km/h 56.6 km/h 59 % 0 mm 517.0 W/m2 CLR
10:36 -12.7 °C -17.2 °C 34097 hPa NW 68.6 km/h 68.6 km/h 57 % 0 mm 513.0 W/m2 CLR
10:41 -12.7 °C -17.2 °C 34097 hPa WNW 68.6 km/h 68.6 km/h 57 % 0 mm 517.0 W/m2 CLR
10:46 -12.7 °C -17.3 °C 34097 hPa WNW 65.5 km/h 65.5 km/h 56 % 0 mm 527.0 W/m2 CLR
10:51 -12.6 °C -17.1 °C 34097 hPa NW 44.7 km/h 44.7 km/h 57 % 0 mm 540.0 W/m2 CLR
10:56 -12.6 °C -17.1 °C 34097 hPa NW 53.6 km/h 53.6 km/h 57 % 0 mm 550.0 W/m2 CLR
11:01 -12.4 °C -17 °C 34097 hPa NW 47.6 km/h 47.6 km/h 57 % 0 mm 563.0 W/m2 CLR
11:06 -12.4 °C -16.9 °C 34097 hPa West 50.7 km/h 50.7 km/h 57 % 0 mm 548.0 W/m2 CLR
11:11 -12.4 °C -17 °C 34107.2 hPa WNW 68.6 km/h 68.6 km/h 57 % 0 mm 599.0 W/m2 CLR
11:16 -12.4 °C -17 °C 34107.2 hPa West 59.5 km/h 59.5 km/h 57 % 0 mm 598.0 W/m2 CLR
11:21 -12.4 °C -17.2 °C 34107.2 hPa NNW 53.6 km/h 53.6 km/h 55 % 0 mm 615.0 W/m2 CLR
11:26 -12.3 °C -16.7 °C 34107.2 hPa NW 46.7 km/h 46.7 km/h 58 % 0 mm 635.0 W/m2 CLR
11:31 -12.3 °C -16.9 °C 34107.2 hPa NW 50.7 km/h 50.7 km/h 56 % 0 mm 663.0 W/m2 CLR
11:36 -12.3 °C -17 °C 34107.2 hPa NW 56.6 km/h 56.6 km/h 56 % 0 mm 599.0 W/m2 CLR
11:41 -12.3 °C -17 °C 34107.2 hPa NW 59.5 km/h 59.5 km/h 56 % 0 mm 622.0 W/m2 CLR
11:46 -12.3 °C -16.8 °C 34107.2 hPa WNW 44.7 km/h 44.7 km/h 57 % 0 mm 643.0 W/m2 CLR
11:51 -12.2 °C -16.6 °C 34107.2 hPa NNW 50.7 km/h 50.7 km/h 58 % 0 mm 657.0 W/m2 CLR
11:56 -12.2 °C -17 °C 34120.7 hPa NW 57 km/h 57 km/h 55 % 0 mm 656.0 W/m2 CLR
12:01 -12.2 °C -17 °C 34107.2 hPa NW 56.6 km/h 56.6 km/h 55 % 0 mm 666.0 W/m2 CLR
12:06 -12.1 °C -17 °C 34107.2 hPa WNW 50.7 km/h 50.7 km/h 54 % 0 mm 675.0 W/m2 CLR
12:11 -11.9 °C -16.4 °C 34107.2 hPa WNW 41.7 km/h 41.7 km/h 57 % 0 mm 664.0 W/m2 CLR
12:16 -12 °C -16.8 °C 34107.2 hPa NW 65.5 km/h 65.5 km/h 55 % 0 mm 649.0 W/m2 CLR
12:21 -12.1 °C -17.2 °C 34107.2 hPa WNW 56.6 km/h 56.6 km/h 53 % 0 mm 640.0 W/m2 CLR
12:26 -12 °C -16.8 °C 34107.2 hPa WNW 62.6 km/h 62.6 km/h 55 % 0 mm 687.0 W/m2 CLR
12:31 -11.9 °C -17.1 °C 34107.2 hPa NW 59.5 km/h 59.5 km/h 53 % 0 mm 686.0 W/m2 CLR
12:36 -11.9 °C -17.3 °C 34107.2 hPa NW 50.7 km/h 50.7 km/h 51 % 0 mm 689.0 W/m2 CLR
12:41 -11.9 °C -17 °C 34107.2 hPa WNW 65.5 km/h 65.5 km/h 53 % 0 mm 691.0 W/m2 CLR
12:46 -11.9 °C -17.3 °C 34107.2 hPa NNW 53.6 km/h 53.6 km/h 51 % 0 mm 693.0 W/m2 CLR
12:51 -11.9 °C -17 °C 34107.2 hPa NW 56.6 km/h 56.6 km/h 53 % 0 mm 694.0 W/m2 CLR
12:56 -11.8 °C -16.9 °C 34097 hPa NW 50.7 km/h 50.7 km/h 53 % 0 mm 696.0 W/m2 CLR
13:01 -11.7 °C -16.6 °C 34097 hPa NW 50.7 km/h 50.7 km/h 55 % 0 mm 698.0 W/m2 CLR
13:06 -11.6 °C -16.9 °C 34107.2 hPa NW 54.4 km/h 54.4 km/h 52 % 0 mm 700.0 W/m2 CLR
13:11 -11.6 °C -16.7 °C 34107.2 hPa NNW 49.2 km/h 49.2 km/h 53 % 0 mm 700.0 W/m2 CLR
13:16 -11.6 °C -17 °C 34097 hPa NW 32.8 km/h 32.8 km/h 51 % 0 mm 703.0 W/m2 CLR
13:21 -11.4 °C -16.7 °C 34097 hPa NNW 53.6 km/h 53.6 km/h 52 % 0 mm 705.0 W/m2 CLR
13:26 -11.5 °C -16.8 °C 34097 hPa NW 44.7 km/h 44.7 km/h 52 % 0 mm 707.0 W/m2 CLR
13:31 -11.3 °C -16.5 °C 34097 hPa WNW 32.8 km/h 33.2 km/h 53 % 0 mm 705.0 W/m2 CLR
13:36 -11.3 °C -16.6 °C 34097 hPa NNW 41.7 km/h 41.7 km/h 52 % 0 mm 707.0 W/m2 CLR
13:42 -11.3 °C -16.5 °C 34107.2 hPa NNW 51.8 km/h 51.8 km/h 53 % 0 mm 707.0 W/m2 CLR
13:47 -11.4 °C -16.6 °C 34107.2 hPa WNW 44.7 km/h 44.7 km/h 53 % 0 mm 701.0 W/m2 CLR
13:52 -11.3 °C -16.3 °C 34097 hPa NW 65.5 km/h 65.5 km/h 54 % 0 mm 700.0 W/m2 CLR
13:57 -11.3 °C -16.5 °C 34097 hPa NW 50.7 km/h 50.7 km/h 53 % 0 mm 694.0 W/m2 CLR
14:02 -11.3 °C -16.3 °C 34107.2 hPa WNW 50.7 km/h 50.7 km/h 54 % 0 mm 691.0 W/m2 CLR
14:07 -11.3 °C -16.9 °C 34107.2 hPa NW 38.8 km/h 38.8 km/h 50 % 0 mm 686.0 W/m2 CLR
14:12 -11.2 °C -16.4 °C 34107.2 hPa NNW 44.7 km/h 44.7 km/h 52 % 0 mm 700.0 W/m2 CLR
14:17 -11.1 °C -17 °C 34107.2 hPa West 41.7 km/h 41.7 km/h 48 % 0 mm 738.0 W/m2 CLR
14:22 -11.1 °C -17 °C 34107.2 hPa WNW 47.6 km/h 47.6 km/h 48 % 0 mm 737.0 W/m2 CLR
14:27 -11.1 °C -17 °C 34107.2 hPa WNW 47.6 km/h 47.6 km/h 48 % 0 mm 700.0 W/m2 CLR
14:32 -11.1 °C -16.8 °C 34097 hPa NW 50.7 km/h 50.7 km/h 49 % 0 mm 679.0 W/m2 CLR
14:37 -11.1 °C -16.5 °C 34097 hPa WNW 50.7 km/h 50.7 km/h 51 % 0 mm 694.0 W/m2 CLR
14:42 -11.1 °C -16.8 °C 34097 hPa NW 41.7 km/h 41.7 km/h 49 % 0 mm 645.0 W/m2 CLR
14:47 -11 °C -16.3 °C 34097 hPa West 29.8 km/h 29.8 km/h 52 % 0 mm 640.0 W/m2 CLR
14:52 -10.9 °C -16.4 °C 34097 hPa WNW 32.8 km/h 32.8 km/h 51 % 0 mm 629.0 W/m2 CLR
14:57 -10.9 °C -16.1 °C 34097 hPa NW 44.7 km/h 44.7 km/h 53 % 0 mm 631.0 W/m2 CLR
15:02 -10.9 °C -16.8 °C 34097 hPa West 49.2 km/h 49.2 km/h 49 % 0 mm 621.0 W/m2 CLR
15:07 -11.1 °C -16.3 °C 34107.2 hPa NW 47.6 km/h 47.6 km/h 52 % 0 mm 598.0 W/m2 CLR
15:12 -10.9 °C -16.2 °C 34097 hPa WNW 47.6 km/h 47.6 km/h 53 % 0 mm 594.0 W/m2 CLR
15:17 -10.9 °C -16.7 °C 34107.2 hPa WNW 38.8 km/h 38.8 km/h 49 % 0 mm 587.0 W/m2 CLR
15:22 -10.9 °C -16.6 °C 34107.2 hPa WNW 50.7 km/h 50.7 km/h 50 % 0 mm 214.0 W/m2 CLR
15:27 -11.1 °C -16.3 °C 34107.2 hPa WNW 41.7 km/h 41.7 km/h 52 % 0 mm 580.0 W/m2 CLR
15:32 -11 °C -17.1 °C 34097 hPa West 50.7 km/h 50.7 km/h 47 % 0 mm 605.0 W/m2 CLR
15:37 -10.9 °C -16.6 °C 34097 hPa NNW 38.8 km/h 38.8 km/h 50 % 0 mm 476.0 W/m2 CLR
15:42 -11.1 °C -16.9 °C 34107.2 hPa WNW 36.2 km/h 36.2 km/h 49 % 0 mm 105.0 W/m2 CLR
15:47 -11.2 °C -16.6 °C 34107.2 hPa NNW 38.8 km/h 38.8 km/h 51 % 0 mm 592.0 W/m2 CLR
15:52 -11.2 °C -16.7 °C 34107.2 hPa WNW 44.7 km/h 44.7 km/h 51 % 0 mm 132.0 W/m2 CLR
15:57 -11.1 °C -16.6 °C 34107.2 hPa WNW 49.2 km/h 49.2 km/h 51 % 0 mm 519.0 W/m2 CLR
16:02 -10.9 °C -16.9 °C 34107.2 hPa West 31.1 km/h 31.1 km/h 48 % 0 mm 512.0 W/m2 CLR
16:07 -10.9 °C -16.8 °C 34107.2 hPa WNW 38.8 km/h 38.8 km/h 49 % 0 mm 448.0 W/m2 CLR
16:12 -10.9 °C -16.9 °C 34107.2 hPa NNW 38.8 km/h 38.8 km/h 48 % 0 mm 473.0 W/m2 CLR
16:17 -10.9 °C -16.7 °C 34107.2 hPa NNW 32.8 km/h 32.8 km/h 49 % 0 mm 464.0 W/m2 CLR
16:22 -10.7 °C -16.7 °C 34107.2 hPa NW 38.8 km/h 38.8 km/h 48 % 0 mm 450.0 W/m2 CLR
16:27 -10.8 °C -16.6 °C 34107.2 hPa NW 44.1 km/h 44.1 km/h 49 % 0 mm 436.0 W/m2 CLR
16:32 -10.9 °C -16.6 °C 34107.2 hPa NNW 32.8 km/h 32.8 km/h 50 % 0 mm 315.0 W/m2 CLR
16:37 -10.9 °C -16.7 °C 34120.7 hPa North 35.7 km/h 35.7 km/h 49 % 0 mm 424.0 W/m2 CLR
16:42 -10.8 °C -16.5 °C 34107.2 hPa North 41.7 km/h 41.7 km/h 50 % 0 mm 380.0 W/m2 CLR
16:47 -10.8 °C -16.8 °C 34120.7 hPa NW 38.8 km/h 38.8 km/h 48 % 0 mm 376.0 W/m2 CLR
16:52 -10.8 °C -16.4 °C 34120.7 hPa NW 29.8 km/h 29.8 km/h 50 % 0 mm 343.0 W/m2 CLR
16:57 -10.8 °C -16.9 °C 34120.7 hPa NNW 49.2 km/h 49.2 km/h 47 % 0 mm 327.0 W/m2 CLR
17:02 -10.9 °C -16.8 °C 34120.7 hPa NW 41.7 km/h 41.7 km/h 48 % 0 mm 309.0 W/m2 CLR
17:07 -10.9 °C -17 °C 34120.7 hPa WNW 29.8 km/h 29.8 km/h 47 % 0 mm 295.0 W/m2 CLR
17:12 -10.9 °C -17.1 °C 34120.7 hPa NNW 53.6 km/h 53.6 km/h 47 % 0 mm 276.0 W/m2 CLR
17:17 -10.9 °C -17.2 °C 34120.7 hPa WNW 38.8 km/h 38.8 km/h 46 % 0 mm 239.0 W/m2 CLR
17:22 -10.9 °C -16.9 °C 34130.9 hPa West 29.8 km/h 29.8 km/h 48 % 0 mm 255.0 W/m2 CLR
17:27 -10.9 °C -16.9 °C 34130.9 hPa NNW 35.7 km/h 35.7 km/h 48 % 0 mm 230.0 W/m2 CLR
17:32 -11 °C -17 °C 34130.9 hPa NNW 35.7 km/h 35.7 km/h 48 % 0 mm 204.0 W/m2 CLR
17:37 -11.2 °C -17.1 °C 34130.9 hPa NNW 35.7 km/h 35.7 km/h 48 % 0 mm 185.0 W/m2 CLR
17:42 -11.2 °C -17.2 °C 34130.9 hPa NW 47.6 km/h 47.6 km/h 48 % 0 mm 174.0 W/m2 CLR
17:47 -11.2 °C -17 °C 34144.4 hPa NNW 35.7 km/h 35.7 km/h 49 % 0 mm 148.0 W/m2 CLR
17:52 -11.2 °C -16.7 °C 34144.4 hPa NNW 26.9 km/h 26.9 km/h 51 % 0 mm 127.0 W/m2 CLR
17:53 -11.2 °C -16.7 °C 34144.4 hPa NNW 26.9 km/h 26.9 km/h 51 % 0 mm 118.0 W/m2 CLR
17:58 -11.2 °C -16.6 °C 34144.4 hPa NW 17.9 km/h 17.9 km/h 51 % 0 mm 105.0 W/m2 CLR
18:03 -11.2 °C -16.6 °C 34154.6 hPa NNW 3.1 km/h 3.1 km/h 51 % 0 mm 84.0 W/m2 CLR
18:08 -11.3 °C -16.9 °C 34154.6 hPa NNW 26.9 km/h 26.9 km/h 50 % 0 mm 30.0 W/m2 BKN
18:13 -11.5 °C -16.8 °C 34164.7 hPa NNW 17.9 km/h 17.9 km/h 52 % 0 mm 42.0 W/m2 BKN
18:18 -11.6 °C -16.8 °C 34164.7 hPa North 20.9 km/h 20.9 km/h 53 % 0 mm 30.0 W/m2 BKN
18:23 -11.7 °C -16.9 °C 34164.7 hPa NNW 20.9 km/h 20.9 km/h 52 % 0 mm 26.0 W/m2 BKN
18:28 -11.6 °C -16.9 °C 34178.3 hPa NNW 23.8 km/h 23.8 km/h 52 % 0 mm 44.0 W/m2 BKN
18:33 -11.6 °C -17.2 °C 34178.3 hPa NW 32.8 km/h 32.8 km/h 50 % 0 mm 23.0 W/m2 BKN
18:38 -11.6 °C -17.2 °C 34178.3 hPa NNW 23.8 km/h 23.8 km/h 50 % 0 mm 14.0 W/m2 BKN
18:43 -11.7 °C -16.8 °C 34178.3 hPa Calm     53 % 0 mm 11.0 W/m2 BKN
18:48 -11.8 °C -17 °C 34178.3 hPa Calm     53 % 0 mm 5.0 W/m2 BKN
18:53 -11.9 °C -17.2 °C 34178.3 hPa NW 17.9 km/h 17.9 km/h 52 % 0 mm 0.0 W/m2 OVC
18:58 -12 °C -17 °C 34178.3 hPa NW 11.9 km/h 11.9 km/h 54 % 0 mm 0.0 W/m2 OVC
19:03 -12.1 °C -17.1 °C 34178.3 hPa Calm     54 % 0 mm 0.0 W/m2 CLR
19:08 -12.2 °C -17.1 °C 34188.4 hPa Calm     54 % 0 mm 0.0 W/m2 CLR
19:13 -12.3 °C -17.1 °C 34188.4 hPa Calm     55 % 0 mm 0.0 W/m2 CLR
19:18 -12.4 °C -17.1 °C 34188.4 hPa Calm     56 % 0 mm 0.0 W/m2 CLR
19:23 -12.5 °C -17.1 °C 34188.4 hPa Calm     56 % 0 mm 0.0 W/m2 CLR
19:28 -12.6 °C -17.1 °C 34188.4 hPa Calm     57 % 0 mm 0.0 W/m2 CLR
19:33 -12.8 °C -16.8 °C 34198.6 hPa Calm     60 % 0 mm 0.0 W/m2 CLR
19:38 -12.8 °C -16.9 °C 34198.6 hPa Calm     60 % 0 mm 0.0 W/m2 CLR
19:43 -12.7 °C -17.1 °C 34198.6 hPa Calm     58 % 0 mm 0.0 W/m2 CLR
19:48 -12.7 °C -17.1 °C 34198.6 hPa Calm     58 % 0 mm 0.0 W/m2 CLR
19:53 -12.9 °C -17 °C 34198.6 hPa Calm     60 % 0 mm 0.0 W/m2 CLR
19:58 -13.1 °C -16.9 °C 34198.6 hPa Calm     62 % 0 mm 0.0 W/m2 CLR
20:03 -13.2 °C -16.9 °C 34212.1 hPa Calm     63 % 0 mm 0.0 W/m2 CLR
20:08 -13.4 °C -17.1 °C 34212.1 hPa Calm     63 % 0 mm 0.0 W/m2 CLR
20:13 -13.4 °C -17 °C 34212.1 hPa Calm     64 % 0 mm 0.0 W/m2 CLR
20:18 -13.5 °C -16.9 °C 34212.1 hPa Calm     65 % 0 mm 0.0 W/m2 CLR
20:23 -13.6 °C -17 °C 34212.1 hPa Calm     65 % 0 mm 0.0 W/m2 CLR
20:28 -13.6 °C -16.8 °C 34212.1 hPa Calm     67 % 0 mm 0.0 W/m2 CLR
20:33 -13.8 °C -16.9 °C 34212.1 hPa Calm     68 % 0 mm 0.0 W/m2 CLR
20:38 -13.9 °C -17 °C 34222.3 hPa Calm     68 % 0 mm 0.0 W/m2 CLR
20:43 -14 °C -16.8 °C 34222.3 hPa Calm     70 % 0 mm 0.0 W/m2 CLR
20:49 -14.2 °C -16.9 °C 34235.8 hPa Calm     71 % 0 mm 0.0 W/m2 CLR
20:54 -14.3 °C -16.9 °C 34235.8 hPa Calm     72 % 0 mm 0.0 W/m2 CLR
20:59 -14.3 °C -16.8 °C 34246 hPa Calm     72 % 0 mm 0.0 W/m2 CLR
21:04 -14.3 °C -16.8 °C 34246 hPa Calm     73 % 0 mm 0.0 W/m2 CLR
21:09 -14.4 °C -16.7 °C 34246 hPa Calm     75 % 0 mm 0.0 W/m2 CLR
21:14 -14.6 °C -16.9 °C 34256.2 hPa Calm     75 % 0 mm 0.0 W/m2 CLR
21:19 -14.7 °C -16.8 °C 34256.2 hPa Calm     76 % 0 mm 0.0 W/m2 CLR
21:24 -14.7 °C -16.8 °C 34256.2 hPa Calm     76 % 0 mm 0.0 W/m2 CLR
21:29 -14.8 °C -16.9 °C 34256.2 hPa Calm     76 % 0 mm 0.0 W/m2 CLR
21:34 -14.8 °C -16.8 °C 34256.2 hPa Calm     77 % 0 mm 0.0 W/m2 CLR
21:39 -14.8 °C -16.9 °C 34256.2 hPa Calm     77 % 0 mm 0.0 W/m2 CLR
21:44 -14.9 °C -16.8 °C 34269.7 hPa Calm     78 % 0 mm 0.0 W/m2 CLR
21:49 -15 °C -16.8 °C 34269.7 hPa Calm     79 % 0 mm 0.0 W/m2 CLR
21:54 -15.1 °C -16.9 °C 34279.9 hPa Calm     79 % 0 mm 0.0 W/m2 CLR
21:59 -15.1 °C -16.9 °C 34279.9 hPa Calm     79 % 0 mm 0.0 W/m2 CLR
22:04 -15.1 °C -16.9 °C 34279.9 hPa Calm     79 % 0 mm 0.0 W/m2 CLR
22:09 -15.1 °C -17.1 °C 34279.9 hPa Calm     77 % 0 mm 0.0 W/m2 CLR
22:14 -14.8 °C -17.1 °C 34293.4 hPa Calm     75 % 0 mm 0.0 W/m2 CLR
22:19 -14.6 °C -17.1 °C 34293.4 hPa Calm     73 % 0 mm 0.0 W/m2 CLR
22:24 -14.5 °C -17.1 °C 34293.4 hPa Calm     72 % 0 mm 0.0 W/m2 CLR
22:29 -14.6 °C -17.2 °C 34293.4 hPa Calm     72 % 0 mm 0.0 W/m2 CLR
22:34 -14.7 °C -17.1 °C 34293.4 hPa Calm     73 % 0 mm 0.0 W/m2 CLR
22:39 -14.8 °C -17.1 °C 34293.4 hPa Calm     74 % 0 mm 0.0 W/m2 CLR
22:44 -14.7 °C -17.1 °C 34293.4 hPa Calm     74 % 0 mm 0.0 W/m2 CLR
22:49 -14.5 °C -17.1 °C 34293.4 hPa Calm     72 % 0 mm 0.0 W/m2 CLR
22:54 -14.5 °C -17.2 °C 34293.4 hPa Calm     71 % 0 mm 0.0 W/m2 CLR
22:59 -14.6 °C -17.2 °C 34293.4 hPa Calm     72 % 0 mm 0.0 W/m2 CLR
23:04 -14.8 °C -17.3 °C 34293.4 hPa Calm     73 % 0 mm 0.0 W/m2 CLR
23:09 -14.7 °C -17.2 °C 34293.4 hPa Calm     73 % 0 mm 0.0 W/m2 CLR
23:14 -14.7 °C -17.2 °C 34303.6 hPa Calm     73 % 0 mm 0.0 W/m2 CLR
23:19 -14.8 °C -17.2 °C 34303.6 hPa Calm     74 % 0 mm 0.0 W/m2 CLR
23:24 -14.9 °C -17.1 °C 34303.6 hPa Calm     76 % 0 mm 0.0 W/m2 CLR
23:29 -15.1 °C -17.3 °C 34303.6 hPa Calm     76 % 0 mm 0.0 W/m2 CLR
23:34 -15.1 °C -17.2 °C 34313.7 hPa Calm     76 % 0 mm 0.0 W/m2 CLR
23:39 -15.1 °C -17.2 °C 34313.7 hPa Calm     76 % 0 mm 0.0 W/m2 CLR
23:44 -15.2 °C -17.2 °C 34313.7 hPa Calm     77 % 0 mm 0.0 W/m2 CLR
23:49 -15.3 °C -17.3 °C 34313.7 hPa Calm     78 % 0 mm 0.0 W/m2 CLR
23:54 -15.4 °C -17.3 °C 34313.7 hPa Calm     79 % 0 mm 0.0 W/m2 CLR
23:59 -15.3 °C -17.3 °C 34327.3 hPa Calm     78 % 0 mm 0.0 W/m2 CLR
Lo Temps de Massalio
Compliments of Weather Underground - 1.25 mb